createdAt,value
2023-04-09T00:01:40.740Z,27.65
2023-04-09T00:04:07.880Z,24.25
2023-04-09T00:06:34.781Z,21.05
2023-04-09T00:09:01.710Z,17.27
2023-04-09T00:11:28.601Z,17.23
2023-04-09T00:13:55.542Z,22.48
2023-04-09T00:16:22.500Z,27.42
2023-04-09T00:18:49.725Z,50.85
2023-04-09T00:21:16.810Z,67.47
2023-04-09T00:23:43.988Z,64.47
2023-04-09T00:26:10.875Z,81.43
2023-04-09T00:28:38.614Z,104.70
2023-04-09T00:31:05.609Z,108.53
2023-04-09T00:33:32.601Z,114.53
2023-04-09T00:35:59.523Z,104.03
2023-04-09T00:38:26.555Z,85.45
2023-04-09T00:40:53.515Z,75.93
2023-04-09T00:43:20.456Z,75.70
2023-04-09T00:45:47.952Z,66.70
2023-04-09T00:48:16.109Z,54.42
2023-04-09T00:50:43.516Z,48.08
2023-04-09T00:53:12.273Z,46.05
2023-04-09T00:55:41.050Z,40.97
2023-04-09T00:58:08.533Z,41.70
2023-04-09T01:00:35.457Z,37.73
2023-04-09T01:03:03.260Z,40.95
2023-04-09T01:05:50.557Z,38.85
2023-04-09T01:08:23.665Z,40.35
2023-04-09T01:11:12.155Z,35.85
2023-04-09T01:13:51.402Z,35.35
2023-04-09T01:16:22.588Z,43.25
2023-04-09T01:19:07.949Z,43.22
2023-04-09T01:21:35.546Z,60.00
2023-04-09T01:24:33.217Z,55.03
2023-04-09T01:27:06.757Z,56.10
2023-04-09T01:29:46.553Z,66.78
2023-04-09T01:32:16.655Z,58.03
2023-04-09T01:34:46.221Z,62.72
2023-04-09T01:37:14.321Z,51.15
2023-04-09T01:39:41.878Z,45.70
2023-04-09T01:42:10.399Z,40.90
2023-04-09T01:44:40.259Z,43.90
2023-04-09T01:47:08.888Z,45.10
2023-04-09T01:49:37.588Z,61.20
2023-04-09T01:52:04.774Z,313.45
2023-04-09T01:54:31.751Z,291.45
2023-04-09T01:56:58.708Z,204.15
2023-04-09T01:59:25.689Z,288.27
2023-04-09T02:02:04.320Z,324.90
2023-04-09T02:04:39.201Z,255.07
2023-04-09T02:07:27.736Z,289.07
2023-04-09T02:09:55.439Z,673.95
2023-04-09T02:12:23.532Z,510.92
2023-04-09T02:14:52.525Z,12.98
2023-04-09T02:17:19.696Z,13.70
2023-04-09T02:19:47.865Z,14.00
2023-04-09T02:22:16.061Z,14.02
2023-04-09T02:24:43.080Z,13.07
2023-04-09T02:27:10.384Z,14.18
2023-04-09T02:29:38.582Z,13.02
2023-04-09T02:32:05.893Z,13.25
2023-04-09T02:34:32.791Z,13.70
2023-04-09T02:36:59.714Z,13.35
2023-04-09T02:39:26.682Z,13.43
2023-04-09T02:41:56.372Z,13.20
2023-04-09T02:44:23.414Z,13.07
2023-04-09T02:46:51.626Z,13.20
2023-04-09T02:49:18.770Z,13.20
2023-04-09T02:51:45.662Z,12.80
2023-04-09T02:54:12.556Z,12.57
2023-04-09T02:56:39.424Z,12.60
2023-04-09T02:59:06.255Z,13.45
2023-04-09T03:01:33.188Z,13.70
2023-04-09T03:04:01.064Z,13.20
2023-04-09T03:06:28.066Z,13.00
2023-04-09T03:08:54.952Z,13.10
2023-04-09T03:11:21.816Z,13.73
2023-04-09T03:13:48.694Z,12.70
2023-04-09T03:16:15.672Z,12.80
2023-04-09T03:18:42.605Z,12.63
2023-04-09T03:21:09.671Z,12.13
2023-04-09T03:23:36.590Z,13.00
2023-04-09T03:26:05.048Z,13.27
2023-04-09T03:28:31.932Z,12.60
2023-04-09T03:30:58.965Z,12.83
2023-04-09T03:33:25.883Z,13.20
2023-04-09T03:35:53.165Z,12.40
2023-04-09T03:38:20.172Z,13.27
2023-04-09T03:40:47.077Z,13.15
2023-04-09T03:43:13.939Z,12.25
2023-04-09T03:45:40.873Z,12.55
2023-04-09T03:48:07.706Z,13.13
2023-04-09T03:50:41.838Z,13.40
2023-04-09T03:53:08.836Z,13.15
2023-04-09T03:55:35.706Z,12.98
2023-04-09T03:58:02.568Z,13.15
2023-04-09T04:00:29.465Z,13.43
2023-04-09T04:02:56.615Z,12.90
2023-04-09T04:05:24.573Z,12.98
2023-04-09T04:07:51.525Z,13.88
2023-04-09T04:10:18.465Z,13.85
2023-04-09T04:12:45.690Z,13.45
2023-04-09T04:15:12.603Z,13.50
2023-04-09T04:17:39.475Z,13.27
2023-04-09T04:20:06.880Z,12.90
2023-04-09T04:22:34.614Z,12.32
2023-04-09T04:25:01.461Z,12.82
2023-04-09T04:27:28.320Z,12.53
2023-04-09T04:29:55.145Z,13.43
2023-04-09T04:32:21.988Z,13.52
2023-04-09T04:34:49.801Z,13.27
2023-04-09T04:37:17.142Z,14.00
2023-04-09T04:39:44.063Z,13.80
2023-04-09T04:42:10.949Z,13.32
2023-04-09T04:44:37.814Z,13.80
2023-04-09T04:47:05.026Z,14.07
2023-04-09T04:49:32.048Z,13.63
2023-04-09T04:51:58.892Z,14.30
2023-04-09T04:54:25.760Z,13.57
2023-04-09T04:56:52.730Z,13.50
2023-04-09T04:59:19.615Z,13.10
2023-04-09T05:01:46.522Z,13.50
2023-04-09T05:04:13.434Z,13.40
2023-04-09T05:06:40.284Z,13.52
2023-04-09T05:09:07.231Z,20.70
2023-04-09T05:11:34.064Z,14.80
2023-04-09T05:14:00.937Z,14.52
2023-04-09T05:16:27.850Z,13.60
2023-04-09T05:18:54.985Z,13.50
2023-04-09T05:21:22.069Z,13.68
2023-04-09T05:23:48.930Z,13.73
2023-04-09T05:26:15.818Z,13.50
2023-04-09T05:28:42.733Z,31.02
2023-04-09T05:31:09.676Z,37.92
2023-04-09T05:33:36.587Z,19.90
2023-04-09T05:36:03.557Z,17.83
2023-04-09T05:38:30.489Z,16.40
2023-04-09T05:40:57.382Z,15.38
2023-04-09T05:43:24.278Z,15.60
2023-04-09T05:45:51.179Z,15.80
2023-04-09T05:48:18.070Z,14.52
2023-04-09T05:50:54.457Z,14.85
2023-04-09T05:53:22.622Z,15.10
2023-04-09T05:55:49.535Z,15.38
2023-04-09T05:58:16.381Z,15.52
2023-04-09T06:00:43.224Z,33.88
2023-04-09T06:03:10.507Z,22.38
2023-04-09T06:05:37.490Z,21.55
2023-04-09T06:08:04.481Z,17.25
2023-04-09T06:10:34.234Z,16.08
2023-04-09T06:13:01.068Z,15.15
2023-04-09T06:15:28.245Z,15.10
2023-04-09T06:17:56.875Z,15.30
2023-04-09T06:20:25.081Z,15.02
2023-04-09T06:22:51.941Z,15.30
2023-04-09T06:25:18.924Z,15.60
2023-04-09T06:27:45.856Z,15.18
2023-04-09T06:30:12.968Z,16.05
2023-04-09T06:32:51.109Z,14.90
2023-04-09T06:35:20.472Z,19.45
2023-04-09T06:37:47.359Z,16.95
2023-04-09T06:40:14.736Z,17.17
2023-04-09T06:42:41.686Z,14.25
2023-04-09T06:45:09.050Z,14.67
2023-04-09T06:47:36.431Z,14.93
2023-04-09T06:50:03.685Z,15.32
2023-04-09T06:52:30.589Z,14.40
2023-04-09T06:54:57.543Z,15.30
2023-04-09T06:57:24.454Z,15.20
2023-04-09T06:59:51.260Z,16.40
2023-04-09T07:02:18.291Z,33.13
2023-04-09T07:04:45.241Z,16.58
2023-04-09T07:07:12.122Z,18.00
2023-04-09T07:09:39.062Z,16.05
2023-04-09T07:12:05.900Z,14.73
2023-04-09T07:14:32.779Z,16.10
2023-04-09T07:16:59.710Z,14.73
2023-04-09T07:19:26.555Z,17.85
2023-04-09T07:21:53.444Z,14.70
2023-04-09T07:24:20.356Z,14.45
2023-04-09T07:26:47.243Z,14.50
2023-04-09T07:29:14.147Z,14.43
2023-04-09T07:31:41.091Z,14.70
2023-04-09T07:34:07.940Z,14.63
2023-04-09T07:36:34.813Z,15.05
2023-04-09T07:39:01.655Z,14.60
2023-04-09T07:41:28.613Z,14.80
2023-04-09T07:43:55.443Z,15.48
2023-04-09T07:46:22.424Z,15.02
2023-04-09T07:48:49.360Z,14.97
2023-04-09T07:51:16.311Z,14.82
2023-04-09T07:53:43.202Z,14.70
2023-04-09T07:56:10.066Z,16.23
2023-04-09T07:58:37.225Z,21.25
2023-04-09T08:01:04.482Z,17.25
2023-04-09T08:03:31.622Z,15.32
2023-04-09T08:05:58.720Z,15.35
2023-04-09T08:08:25.563Z,15.70
2023-04-09T08:10:52.425Z,15.93
2023-04-09T08:13:19.359Z,15.30
2023-04-09T08:15:46.241Z,15.73
2023-04-09T08:18:16.749Z,16.40
2023-04-09T08:20:43.587Z,16.30
2023-04-09T08:23:11.045Z,16.20
2023-04-09T08:25:37.957Z,17.08
2023-04-09T08:28:05.006Z,16.35
2023-04-09T08:30:31.908Z,16.87
2023-04-09T08:32:58.807Z,17.15
2023-04-09T08:35:25.725Z,18.40
2023-04-09T08:37:52.580Z,18.23
2023-04-09T08:40:19.631Z,17.33
2023-04-09T08:42:47.685Z,16.20
2023-04-09T08:45:14.639Z,15.82
2023-04-09T08:47:43.058Z,15.88
2023-04-09T08:50:10.487Z,18.52
2023-04-09T08:52:38.255Z,26.15
2023-04-09T08:55:05.544Z,21.30
2023-04-09T08:57:40.865Z,19.05
2023-04-09T09:00:08.602Z,15.85
2023-04-09T09:02:35.787Z,16.13
2023-04-09T09:05:02.885Z,15.60
2023-04-09T09:07:30.381Z,16.67
2023-04-09T09:09:59.100Z,16.45
2023-04-09T09:12:40.485Z,16.20
2023-04-09T09:15:28.013Z,19.30
2023-04-09T09:18:00.145Z,27.00
2023-04-09T09:20:27.406Z,19.45
2023-04-09T09:22:56.040Z,16.88
2023-04-09T09:25:23.770Z,17.60
2023-04-09T09:27:51.367Z,18.40
2023-04-09T09:30:26.557Z,17.67
2023-04-09T09:32:55.105Z,17.85
2023-04-09T09:35:22.338Z,31.63
2023-04-09T09:38:04.041Z,19.80
2023-04-09T09:40:30.994Z,20.70
2023-04-09T09:42:57.968Z,20.17
2023-04-09T09:45:25.595Z,20.35
2023-04-09T09:47:53.435Z,19.60
2023-04-09T09:50:24.812Z,19.70
2023-04-09T09:52:58.940Z,19.30
2023-04-09T09:55:30.431Z,19.60
2023-04-09T09:58:00.371Z,18.60
2023-04-09T10:00:29.042Z,18.20
2023-04-09T10:03:36.911Z,17.10
2023-04-09T10:06:04.068Z,16.80
2023-04-09T10:08:33.206Z,16.80
2023-04-09T10:11:01.648Z,16.90
2023-04-09T10:13:39.546Z,23.17
2023-04-09T10:16:07.814Z,27.95
2023-04-09T10:18:35.698Z,18.75
2023-04-09T10:21:26.910Z,17.67
2023-04-09T10:23:54.426Z,18.10
2023-04-09T10:26:21.475Z,17.38
2023-04-09T10:29:04.197Z,17.40
2023-04-09T10:32:04.442Z,17.67
2023-04-09T10:34:36.458Z,18.20
2023-04-09T10:37:03.541Z,18.20
2023-04-09T10:39:33.988Z,18.33
2023-04-09T10:42:07.562Z,17.17
2023-04-09T10:44:34.561Z,17.17
2023-04-09T10:47:03.310Z,16.77
2023-04-09T10:49:40.253Z,16.17
2023-04-09T10:52:11.324Z,17.23
2023-04-09T10:54:40.781Z,20.40
2023-04-09T10:57:07.575Z,20.67
2023-04-09T10:59:38.482Z,17.70
2023-04-09T11:02:09.410Z,17.23
2023-04-09T11:04:57.281Z,18.55
2023-04-09T11:07:25.229Z,19.83
2023-04-09T11:09:55.198Z,17.55
2023-04-09T11:12:22.090Z,18.60
2023-04-09T11:14:48.972Z,17.70
2023-04-09T11:17:15.908Z,18.63
2023-04-09T11:19:42.763Z,18.25
2023-04-09T11:22:10.877Z,18.65
2023-04-09T11:24:45.112Z,19.38
2023-04-09T11:27:12.460Z,18.42
2023-04-09T11:29:39.725Z,18.40
2023-04-09T11:32:06.656Z,19.50
2023-04-09T11:34:36.407Z,18.60
2023-04-09T11:37:04.677Z,18.52
2023-04-09T11:39:31.515Z,19.50
2023-04-09T11:41:58.351Z,19.33
2023-04-09T11:44:25.209Z,19.40
2023-04-09T11:46:52.287Z,29.27
2023-04-09T11:49:19.870Z,19.38
2023-04-09T11:51:46.876Z,18.40
2023-04-09T11:54:14.261Z,19.13
2023-04-09T11:56:41.189Z,22.50
2023-04-09T11:59:08.112Z,31.70
2023-04-09T12:01:35.449Z,19.75
2023-04-09T12:04:02.732Z,18.85
2023-04-09T12:06:29.852Z,18.55
2023-04-09T12:08:58.420Z,18.73
2023-04-09T12:11:30.208Z,18.17
2023-04-09T12:14:01.327Z,19.30
2023-04-09T12:16:31.405Z,23.30
2023-04-09T12:19:16.130Z,20.48
2023-04-09T12:21:52.611Z,18.85
2023-04-09T12:24:20.452Z,18.92
2023-04-09T12:26:48.175Z,18.35
2023-04-09T12:29:16.428Z,18.20
2023-04-09T12:31:43.971Z,18.75
2023-04-09T12:34:11.618Z,18.70
2023-04-09T12:36:41.499Z,19.08
2023-04-09T12:39:09.545Z,20.53
2023-04-09T12:41:36.478Z,18.95
2023-04-09T12:44:03.438Z,17.52
2023-04-09T12:46:30.369Z,18.38
2023-04-09T12:48:57.264Z,17.67
2023-04-09T12:51:24.183Z,17.27
2023-04-09T12:53:51.151Z,19.83
2023-04-09T12:56:18.231Z,18.42
2023-04-09T12:58:45.121Z,17.50
2023-04-09T13:01:12.059Z,18.00
2023-04-09T13:03:39.147Z,17.07
2023-04-09T13:06:06.341Z,17.87
2023-04-09T13:08:33.210Z,17.17
2023-04-09T13:11:00.148Z,17.60
2023-04-09T13:13:27.478Z,17.80
2023-04-09T13:15:54.589Z,17.50
2023-04-09T13:18:21.487Z,17.20
2023-04-09T13:20:48.442Z,17.98
2023-04-09T13:23:16.288Z,22.05
2023-04-09T13:25:43.155Z,20.13
2023-04-09T13:28:10.017Z,18.90
2023-04-09T13:30:36.984Z,17.05
2023-04-09T13:33:04.102Z,17.90
2023-04-09T13:35:31.277Z,17.33
2023-04-09T13:37:58.229Z,19.20
2023-04-09T13:40:25.086Z,20.23
2023-04-09T13:42:51.939Z,20.17
2023-04-09T13:45:18.885Z,17.55
2023-04-09T13:47:45.793Z,16.70
2023-04-09T13:50:12.688Z,16.00
2023-04-09T13:52:39.620Z,17.15
2023-04-09T13:55:07.239Z,16.90
2023-04-09T13:57:34.176Z,17.50
2023-04-09T14:00:01.090Z,17.00
2023-04-09T14:02:28.168Z,16.33
2023-04-09T14:04:55.170Z,16.98
2023-04-09T14:07:22.052Z,15.73
2023-04-09T14:09:49.672Z,15.50
2023-04-09T14:12:16.850Z,16.00
2023-04-09T14:14:43.839Z,15.98
2023-04-09T14:17:10.744Z,15.90
2023-04-09T14:19:37.606Z,15.82
2023-04-09T14:22:04.585Z,15.40
2023-04-09T14:24:31.431Z,15.95
2023-04-09T14:26:58.311Z,15.73
2023-04-09T14:29:25.238Z,16.73
2023-04-09T14:31:52.069Z,17.50
2023-04-09T14:34:19.066Z,16.30
2023-04-09T14:36:45.977Z,14.90
2023-04-09T14:39:12.884Z,14.90
2023-04-09T14:41:39.742Z,15.40
2023-04-09T14:44:06.822Z,14.70
2023-04-09T14:46:33.756Z,14.88
2023-04-09T14:49:00.745Z,15.00
2023-04-09T14:51:28.346Z,14.93
2023-04-09T14:53:55.211Z,14.50
2023-04-09T14:56:22.185Z,14.75
2023-04-09T14:58:49.095Z,14.55
2023-04-09T15:01:16.034Z,16.65
2023-04-09T15:03:43.452Z,16.60
2023-04-09T15:06:11.992Z,17.50
2023-04-09T15:08:39.117Z,14.40
2023-04-09T15:11:06.074Z,13.20
2023-04-09T15:13:32.957Z,12.38
2023-04-09T15:15:59.963Z,12.60
2023-04-09T15:18:26.834Z,14.18
2023-04-09T15:20:53.729Z,19.20
2023-04-09T15:23:20.609Z,20.02
2023-04-09T15:25:47.454Z,17.83
2023-04-09T15:28:14.424Z,14.02
2023-04-09T15:30:41.282Z,12.70
2023-04-09T15:33:08.403Z,13.30
2023-04-09T15:35:35.599Z,12.40
2023-04-09T15:38:02.546Z,12.20
2023-04-09T15:40:29.398Z,12.10
2023-04-09T15:42:56.297Z,11.60
2023-04-09T15:45:23.234Z,11.20
2023-04-09T15:47:50.118Z,11.63
2023-04-09T15:50:17.018Z,11.20
2023-04-09T15:52:43.893Z,11.43
2023-04-09T15:55:11.198Z,10.65
2023-04-09T15:57:38.057Z,13.13
2023-04-09T16:00:05.440Z,11.80
2023-04-09T16:02:32.423Z,11.05
2023-04-09T16:04:59.328Z,11.35
2023-04-09T16:07:26.185Z,11.48
2023-04-09T16:09:53.099Z,11.00
2023-04-09T16:12:20.043Z,10.20
2023-04-09T16:14:46.881Z,11.02
2023-04-09T16:17:13.757Z,10.90
2023-04-09T16:19:40.698Z,10.90
2023-04-09T16:22:07.566Z,15.13
2023-04-09T16:24:34.554Z,15.48
2023-04-09T16:27:01.607Z,14.07
2023-04-09T16:29:28.518Z,12.30
2023-04-09T16:31:55.498Z,12.00
2023-04-09T16:34:22.445Z,12.30
2023-04-09T16:36:49.377Z,12.90
2023-04-09T16:39:16.539Z,13.40
2023-04-09T16:41:44.043Z,13.13
2023-04-09T16:44:11.135Z,13.05
2023-04-09T16:46:37.982Z,13.95
2023-04-09T16:49:04.894Z,13.50
2023-04-09T16:51:31.912Z,12.65
2023-04-09T16:53:58.806Z,14.13
2023-04-09T16:56:25.905Z,13.50
2023-04-09T16:58:53.163Z,13.80
2023-04-09T17:01:20.275Z,14.37
2023-04-09T17:03:50.624Z,13.60
2023-04-09T17:06:17.673Z,15.43
2023-04-09T17:08:45.371Z,14.02
2023-04-09T17:11:16.215Z,14.20
2023-04-09T17:13:43.221Z,13.57
2023-04-09T17:16:10.407Z,13.20
2023-04-09T17:18:37.647Z,14.13
2023-04-09T17:21:04.905Z,13.77
2023-04-09T17:23:31.781Z,13.10
2023-04-09T17:26:00.354Z,13.90
2023-04-09T17:28:27.177Z,13.18
2023-04-09T17:30:54.130Z,13.88
2023-04-09T17:33:21.016Z,14.35
2023-04-09T17:35:47.956Z,14.40
2023-04-09T17:38:14.978Z,13.95
2023-04-09T17:40:42.006Z,14.32
2023-04-09T17:43:08.906Z,14.35
2023-04-09T17:45:35.812Z,14.67
2023-04-09T17:48:02.869Z,15.35
2023-04-09T17:50:32.840Z,14.27
2023-04-09T17:52:59.731Z,15.10
2023-04-09T17:55:26.595Z,15.43
2023-04-09T17:57:53.509Z,14.85
2023-04-09T18:00:20.470Z,14.90
2023-04-09T18:02:47.621Z,15.70
2023-04-09T18:05:14.761Z,15.30
2023-04-09T18:07:41.697Z,15.85
2023-04-09T18:10:08.839Z,15.45
2023-04-09T18:12:35.800Z,16.10
2023-04-09T18:15:02.757Z,16.20
2023-04-09T18:17:29.718Z,16.08
2023-04-09T18:19:56.617Z,16.30
2023-04-09T18:22:23.598Z,16.80
2023-04-09T18:24:51.178Z,16.90
2023-04-09T18:27:18.095Z,17.05
2023-04-09T18:29:44.936Z,17.80
2023-04-09T18:32:11.806Z,17.92
2023-04-09T18:34:38.667Z,18.80
2023-04-09T18:37:05.518Z,18.93
2023-04-09T18:39:33.884Z,18.00
2023-04-09T18:42:00.745Z,17.98
2023-04-09T18:44:27.572Z,18.20
2023-04-09T18:46:54.561Z,18.77
2023-04-09T18:49:21.473Z,18.65
2023-04-09T18:51:48.364Z,19.50
2023-04-09T18:54:15.293Z,20.00
2023-04-09T18:56:42.639Z,18.95
2023-04-09T18:59:10.509Z,19.20
2023-04-09T19:01:37.493Z,19.23
2023-04-09T19:04:04.486Z,19.80
2023-04-09T19:06:31.460Z,19.55
2023-04-09T19:08:58.380Z,20.15
2023-04-09T19:11:25.811Z,20.98
2023-04-09T19:13:52.701Z,20.60
2023-04-09T19:16:19.848Z,21.20
2023-04-09T19:18:46.777Z,20.60
2023-04-09T19:21:14.115Z,19.85
2023-04-09T19:23:40.969Z,19.88
2023-04-09T19:26:07.797Z,21.15
2023-04-09T19:28:34.950Z,20.58
2023-04-09T19:31:03.553Z,20.35
2023-04-09T19:33:30.723Z,20.65
2023-04-09T19:35:57.727Z,21.40
2023-04-09T19:38:24.654Z,20.97
2023-04-09T19:40:51.533Z,23.33
2023-04-09T19:43:18.404Z,23.30
2023-04-09T19:45:45.299Z,23.60
2023-04-09T19:48:12.888Z,22.20
2023-04-09T19:50:40.069Z,22.70
2023-04-09T19:53:07.208Z,22.00
2023-04-09T19:55:34.351Z,22.25
2023-04-09T19:58:01.714Z,22.50
2023-04-09T20:00:28.913Z,21.58
2023-04-09T20:02:56.231Z,21.88
2023-04-09T20:05:23.193Z,22.70
2023-04-09T20:07:50.869Z,21.40
2023-04-09T20:10:18.049Z,21.98
2023-04-09T20:12:49.712Z,22.00
2023-04-09T20:15:16.795Z,22.05
2023-04-09T20:17:43.805Z,21.55
2023-04-09T20:20:11.068Z,21.40
2023-04-09T20:22:38.030Z,21.60
2023-04-09T20:25:05.193Z,21.15
2023-04-09T20:27:32.040Z,21.42
2023-04-09T20:29:58.893Z,20.55
2023-04-09T20:32:25.867Z,21.63
2023-04-09T20:34:52.752Z,20.60
2023-04-09T20:37:19.666Z,21.55
2023-04-09T20:39:46.571Z,20.70
2023-04-09T20:42:13.499Z,21.77
2023-04-09T20:44:40.493Z,21.15
2023-04-09T20:47:07.401Z,20.58
2023-04-09T20:49:34.311Z,25.25
2023-04-09T20:52:01.155Z,21.83
2023-04-09T20:54:28.053Z,21.35
2023-04-09T20:56:54.979Z,21.20
2023-04-09T20:59:21.834Z,20.67
2023-04-09T21:01:48.804Z,23.57
2023-04-09T21:04:17.017Z,22.25
2023-04-09T21:06:44.033Z,21.20
2023-04-09T21:09:10.933Z,20.35
2023-04-09T21:11:37.925Z,19.70
2023-04-09T21:14:04.949Z,20.60
2023-04-09T21:16:31.846Z,20.67
2023-04-09T21:18:58.795Z,19.73
2023-04-09T21:21:25.659Z,20.75
2023-04-09T21:23:52.559Z,20.60
2023-04-09T21:26:19.646Z,20.50
2023-04-09T21:28:46.699Z,19.60
2023-04-09T21:31:13.648Z,20.75
2023-04-09T21:33:40.556Z,22.77
2023-04-09T21:36:07.739Z,25.67
2023-04-09T21:38:34.887Z,21.65
2023-04-09T21:41:01.870Z,21.02
2023-04-09T21:43:28.807Z,20.63
2023-04-09T21:45:56.666Z,21.30
2023-04-09T21:48:23.704Z,20.30
2023-04-09T21:50:50.568Z,19.55
2023-04-09T21:53:17.419Z,20.52
2023-04-09T21:55:44.491Z,20.50
2023-04-09T21:58:11.433Z,20.63
2023-04-09T22:00:38.388Z,20.10
2023-04-09T22:03:05.437Z,20.40
2023-04-09T22:05:33.287Z,20.25
2023-04-09T22:08:00.542Z,20.02
2023-04-09T22:10:28.032Z,19.60
2023-04-09T22:12:54.942Z,20.23
2023-04-09T22:15:21.948Z,20.10
2023-04-09T22:17:49.127Z,19.40
2023-04-09T22:20:16.118Z,19.03
2023-04-09T22:22:43.414Z,19.80
2023-04-09T22:25:10.617Z,20.00
2023-04-09T22:27:37.896Z,19.60
2023-04-09T22:30:05.764Z,21.05
2023-04-09T22:32:32.711Z,20.02
2023-04-09T22:34:59.866Z,19.10
2023-04-09T22:37:26.707Z,20.83
2023-04-09T22:39:53.604Z,20.63
2023-04-09T22:42:20.501Z,19.40
2023-04-09T22:44:47.336Z,20.95
2023-04-09T22:47:14.276Z,21.10
2023-04-09T22:49:41.112Z,20.17
2023-04-09T22:52:08.061Z,19.85
2023-04-09T22:54:34.992Z,19.88
2023-04-09T22:57:01.876Z,21.52
2023-04-09T22:59:37.182Z,19.67
2023-04-09T23:02:06.540Z,20.52
2023-04-09T23:04:33.752Z,20.40
2023-04-09T23:07:00.802Z,19.00
2023-04-09T23:09:27.716Z,20.00
2023-04-09T23:11:54.635Z,20.05
2023-04-09T23:14:21.501Z,19.43
2023-04-09T23:16:48.410Z,19.65
2023-04-09T23:19:15.279Z,19.60
2023-04-09T23:21:42.214Z,18.23
2023-04-09T23:24:09.096Z,19.48
2023-04-09T23:26:36.181Z,17.83
2023-04-09T23:29:03.010Z,18.48
2023-04-09T23:31:29.935Z,17.75
2023-04-09T23:33:56.853Z,17.20
2023-04-09T23:36:23.714Z,17.63
2023-04-09T23:38:50.572Z,16.90
2023-04-09T23:41:17.495Z,17.67
2023-04-09T23:43:44.325Z,17.23
2023-04-09T23:46:11.270Z,17.73
2023-04-09T23:48:38.148Z,17.23
2023-04-09T23:51:05.255Z,17.10
2023-04-09T23:53:32.244Z,17.77
2023-04-09T23:55:59.138Z,17.73
2023-04-09T23:58:25.994Z,17.25
